Decoded Metar for GOBD ( in ) (IATA:) | Meteo·Mobile Aviation Weather
aviador You're here:

GOBD Decoded Metar

in
Report Time2019-01-19 06:00:00
UTC Time2019-01-19 06:28:34
Flight Rules mvfr MVFR
Wind030° at 18 kt
W.Rank030° ranks 9
Current wind is above 030° avg. (11.0)
Visibility6000 m
Phenomena:N/A
Clouds:N/A
Expected CloudBase > 6,400 ft AGL from Temp-Dew spread
CeilingNone
Temp18°C
Dew Point02°C (34% RH)
AAT9.8°C
QNH1016 hPa
Raw Report
METAR GOBD 190600Z 03018KT 6000 NSC 18/02 Q1016 NOSIG=

Extra information for GOBD:More info

Social comments